Thurgau — HBLF — position and weather

sailwx.info

Track history (hours):
 
Tides and Currents Weather Stations Pressure Air Temp Water Temp Dewpoint Dewpoint Depression Visibility Wind Speed Wind Dir Waves Ship Positions

Thurgau

Last reported at 2016-Sep-22 20:15 UTC. Time now 2016-Sep-25 10:35 UTC.
Position N 28°18' W 016°05'.

Length 180 m; draft 10.4 m.

Type: Cargo ship. MMSI: 269217000.

Date/timePositionNaut miles runAvg speedWind from/ knotsBaromVisibWave heightAir tempDewpointWater temp
2016-Sep-22 20:15N 28°18' W 016°05'  
2016-Sep-20 14:32N 37°19' W 010°31'1111.3
2016-Sep-20 13:33N 37°29' W 010°25'3311.0
2016-Sep-20 10:33N 37°58' W 010°06'2211.1
2016-Sep-20 08:33N 38°20' W 010°05'1111.0
2016-Sep-20 07:33N 38°31' W 010°05'1111.3
2016-Sep-20 06:33N 38°43' W 010°05'4411.1
2016-Sep-20 02:33N 39°27' W 010°05'  
2016-Sep-17 10:28N 49°48' W 003°26'2010.4
2016-Sep-17 08:33N 49°58' W 002°59'9 8.7
2016-Sep-17 07:31N 50°01' W 002°46'17410.9
2016-Sep-16 15:33N 51°05' E 001°29'27 9.0
2016-Sep-16 12:33N 51°25' E 001°57'9810.8
2016-Sep-16 03:31N 52°42' E 003°36'9 9.4
2016-Sep-16 02:31N 52°49' E 003°46'4110.3
2016-Sep-15 22:32N 53°20' E 004°30'1111.6
2016-Sep-15 21:33N 53°31' E 004°37'1111.2
2016-Sep-15 20:33N 53°41' E 004°43'2110.7
2016-Sep-15 18:33N 54°01' E 004°56'15411.0
2016-Sep-15 04:32N 56°15' E 007°10'11610.6
2016-Sep-14 17:33N 57°42' E 009°32'1111.2
2016-Sep-14 16:33N 57°45' E 009°51'3410.4
2016-Sep-14 13:17N 57°44' E 010°55'811.5
2016-Sep-14 12:33N 57°39' E 011°07'2311.6
2016-Sep-14 10:33N 57°20' E 011°32'1212.1
2016-Sep-14 09:33N 57°08' E 011°39'1211.6
2016-Sep-14 08:33N 56°57' E 011°47'1111.1
2016-Sep-14 07:33N 56°47' E 011°54'1010.2
2016-Sep-14 06:33N 56°39' E 011°42'3110.5
2016-Sep-14 03:33N 56°15' E 011°06'5611.1
2016-Sep-13 22:33N 55°19' E 011°02'2110.5
2016-Sep-13 20:33N 54°59' E 010°58'2010.1
2016-Sep-13 18:33N 54°39' E 010°50'1110.9
2016-Sep-13 17:33N 54°36' E 011°09'1211.9
2016-Sep-13 16:33N 54°31' E 011°27'48 9.6
2016-Sep-13 11:33N 54°48' E 012°45'2311.5
2016-Sep-13 09:33N 54°55' E 013°22'2311.5
2016-Sep-13 07:33N 55°03' E 014°00'1110.8
2016-Sep-13 06:33N 55°11' E 014°14'2311.5
2016-Sep-13 04:33N 55°28' E 014°40'2211.2
2016-Sep-13 02:33N 55°39' E 015°15'3311.1
2016-Sep-12 23:33N 55°55' E 016°06'2411.3
2016-Sep-12 21:24N 56°08' E 016°43'  
Track history (hours):
 
Tides and Currents Weather Stations Pressure Air Temp Water Temp Dewpoint Dewpoint Depression Visibility Wind Speed Wind Dir Waves Ship Positions

Thurgau

Last reported at 2016-Sep-22 20:15 UTC. Time now 2016-Sep-25 10:35 UTC.
Position N 28°18' W 016°05'.

Length 180 m; draft 10.4 m.

Type: Cargo ship. MMSI: 269217000.

Date/timePositionNaut miles runAvg speedWind from/ knotsBaromVisibWave heightAir tempDewpointWater temp
2016-Sep-22 20:15N 28°18' W 016°05'  
2016-Sep-20 14:32N 37°19' W 010°31'1111.3
2016-Sep-20 13:33N 37°29' W 010°25'3311.0
2016-Sep-20 10:33N 37°58' W 010°06'2211.1
2016-Sep-20 08:33N 38°20' W 010°05'1111.0
2016-Sep-20 07:33N 38°31' W 010°05'1111.3
2016-Sep-20 06:33N 38°43' W 010°05'4411.1
2016-Sep-20 02:33N 39°27' W 010°05'  
2016-Sep-17 10:28N 49°48' W 003°26'2010.4
2016-Sep-17 08:33N 49°58' W 002°59'9 8.7
2016-Sep-17 07:31N 50°01' W 002°46'17410.9
2016-Sep-16 15:33N 51°05' E 001°29'27 9.0
2016-Sep-16 12:33N 51°25' E 001°57'9810.8
2016-Sep-16 03:31N 52°42' E 003°36'9 9.4
2016-Sep-16 02:31N 52°49' E 003°46'4110.3
2016-Sep-15 22:32N 53°20' E 004°30'1111.6
2016-Sep-15 21:33N 53°31' E 004°37'1111.2
2016-Sep-15 20:33N 53°41' E 004°43'2110.7
2016-Sep-15 18:33N 54°01' E 004°56'15411.0
2016-Sep-15 04:32N 56°15' E 007°10'11610.6
2016-Sep-14 17:33N 57°42' E 009°32'1111.2
2016-Sep-14 16:33N 57°45' E 009°51'3410.4
2016-Sep-14 13:17N 57°44' E 010°55'811.5
2016-Sep-14 12:33N 57°39' E 011°07'2311.6
2016-Sep-14 10:33N 57°20' E 011°32'1212.1
2016-Sep-14 09:33N 57°08' E 011°39'1211.6
2016-Sep-14 08:33N 56°57' E 011°47'1111.1
2016-Sep-14 07:33N 56°47' E 011°54'1010.2
2016-Sep-14 06:33N 56°39' E 011°42'3110.5
2016-Sep-14 03:33N 56°15' E 011°06'5611.1
2016-Sep-13 22:33N 55°19' E 011°02'2110.5
2016-Sep-13 20:33N 54°59' E 010°58'2010.1
2016-Sep-13 18:33N 54°39' E 010°50'1110.9
2016-Sep-13 17:33N 54°36' E 011°09'1211.9
2016-Sep-13 16:33N 54°31' E 011°27'48 9.6
2016-Sep-13 11:33N 54°48' E 012°45'2311.5
2016-Sep-13 09:33N 54°55' E 013°22'2311.5
2016-Sep-13 07:33N 55°03' E 014°00'1110.8
2016-Sep-13 06:33N 55°11' E 014°14'2311.5
2016-Sep-13 04:33N 55°28' E 014°40'2211.2
2016-Sep-13 02:33N 55°39' E 015°15'3311.1
2016-Sep-12 23:33N 55°55' E 016°06'2411.3
2016-Sep-12 21:24N 56°08' E 016°43'  

Dump ship's entire track history